Time;durP1;ratioP1;P1;durP2;ratioP2;P2;SDS_P1;SDS_P2;PMS_P1;PMS_P2;Temp;Humidity;BMP_temperature;BMP_pressure;BME280_temperature;BME280_humidity;BME280_pressure;Samples;Min_cycle;Max_cycle;Signal;HPM_P1;HPM_P2
2021/06/23 00:02:15;;;;;;;16.67;4.00;;;13.60;99.90;;;;;;5093568;28;20039;-77
2021/06/23 00:04:43;;;;;;;16.60;3.67;;;13.60;99.90;;;;;;5090383;28;20032;-76
2021/06/23 00:07:09;;;;;;;9.63;3.10;;;13.50;99.90;;;;;;5091245;28;20154;-76
2021/06/23 00:09:35;;;;;;;13.57;3.67;;;13.60;99.90;;;;;;5093166;28;20016;-76
2021/06/23 00:12:02;;;;;;;11.88;3.28;;;13.60;99.90;;;;;;5095055;28;20008;-76
2021/06/23 00:14:36;;;;;;;11.82;3.67;;;13.60;99.90;;;;;;5098594;28;20024;-76
2021/06/23 00:17:01;;;;;;;11.75;3.00;;;13.50;99.90;;;;;;5094573;28;20035;-75
2021/06/23 00:19:27;;;;;;;15.93;3.80;;;13.50;99.90;;;;;;5083677;28;20025;-76
2021/06/23 00:21:52;;;;;;;14.73;3.30;;;13.50;99.90;;;;;;5085067;28;20025;-77
2021/06/23 00:24:18;;;;;;;11.98;2.92;;;13.50;99.90;;;;;;5096434;28;20025;-77
2021/06/23 00:26:43;;;;;;;10.75;3.30;;;13.50;99.90;;;;;;5094306;28;20064;-76
2021/06/23 00:29:09;;;;;;;11.07;3.17;;;13.50;99.90;;;;;;5092467;28;20025;-77
2021/06/23 00:31:34;;;;;;;13.70;3.05;;;13.40;99.90;;;;;;5092853;28;20077;-75
2021/06/23 00:34:02;;;;;;;13.43;3.20;;;13.50;99.90;;;;;;5090352;28;20029;-76
2021/06/23 00:36:28;;;;;;;11.60;3.70;;;13.50;99.90;;;;;;5090962;28;20519;-76
2021/06/23 00:38:54;;;;;;;11.18;3.95;;;13.40;99.90;;;;;;5084722;28;20093;-77
2021/06/23 00:41:19;;;;;;;14.68;4.13;;;13.50;99.90;;;;;;5082340;28;20017;-75
2021/06/23 00:43:46;;;;;;;14.02;4.05;;;13.50;99.90;;;;;;5086179;28;20027;-77
2021/06/23 00:46:12;;;;;;;17.25;3.55;;;13.40;99.90;;;;;;5077293;28;20024;-77
2021/06/23 00:48:38;;;;;;;14.65;4.57;;;13.50;99.90;;;;;;5075747;28;20459;-76
2021/06/23 00:51:04;;;;;;;15.82;5.10;;;13.60;99.90;;;;;;5072858;28;20346;-74
2021/06/23 00:53:31;;;;;;;16.75;5.38;;;13.50;99.90;;;;;;5071971;28;20017;-75
2021/06/23 00:55:58;;;;;;;12.82;6.10;;;13.60;99.90;;;;;;5074386;28;20056;-75
2021/06/23 00:58:24;;;;;;;13.18;6.07;;;13.60;99.90;;;;;;5075252;28;20031;-75
2021/06/23 01:00:52;;;;;;;21.30;6.88;;;13.60;99.90;;;;;;5075526;28;20036;-75
2021/06/23 01:03:20;;;;;;;10.18;5.60;;;13.40;99.90;;;;;;5077105;28;20047;-75
2021/06/23 01:05:46;;;;;;;12.30;6.05;;;13.50;99.90;;;;;;5077429;28;20024;-75
2021/06/23 01:08:13;;;;;;;14.43;5.75;;;13.60;99.90;;;;;;5076049;28;20021;-75
2021/06/23 01:10:39;;;;;;;11.27;5.82;;;13.80;99.90;;;;;;5077193;28;20078;-75
2021/06/23 01:13:16;;;;;;;11.50;6.22;;;13.80;99.90;;;;;;5081116;28;20059;-73
2021/06/23 01:15:43;;;;;;;11.20;6.60;;;13.70;99.90;;;;;;5078737;28;20017;-74
2021/06/23 01:18:09;;;;;;;12.55;5.75;;;13.60;99.90;;;;;;5080751;28;20024;-76
2021/06/23 01:20:43;;;;;;;18.40;5.90;;;13.60;99.90;;;;;;5071477;28;20029;-77
2021/06/23 01:23:10;;;;;;;18.33;7.85;;;13.60;99.90;;;;;;5067050;28;20024;-76
2021/06/23 01:25:35;;;;;;;17.83;6.30;;;13.40;99.90;;;;;;5079078;28;20033;-75
2021/06/23 01:28:03;;;;;;;14.23;6.75;;;13.40;99.90;;;;;;5080169;28;20051;-75
2021/06/23 01:30:29;;;;;;;15.15;6.78;;;13.30;99.90;;;;;;5085702;28;20107;-75
2021/06/23 01:32:55;;;;;;;12.90;6.65;;;13.30;99.90;;;;;;5093098;28;20044;-75
2021/06/23 01:35:21;;;;;;;13.20;7.55;;;13.30;99.90;;;;;;5082564;28;20576;-75
2021/06/23 01:37:47;;;;;;;10.60;6.95;;;13.30;99.90;;;;;;5094258;28;20036;-75
2021/06/23 01:40:13;;;;;;;20.20;6.97;;;13.20;99.90;;;;;;5094119;28;20025;-74
2021/06/23 01:42:39;;;;;;;11.32;6.57;;;13.30;99.90;;;;;;5086186;28;20084;-76
2021/06/23 01:45:05;;;;;;;22.42;8.15;;;13.50;99.90;;;;;;5082313;28;20040;-74
2021/06/23 01:47:31;;;;;;;17.98;8.60;;;13.40;99.90;;;;;;5075093;28;20034;-77
2021/06/23 01:49:59;;;;;;;15.57;7.65;;;13.40;99.90;;;;;;5071396;28;20139;-76
2021/06/23 01:52:25;;;;;;;19.42;7.63;;;13.30;99.90;;;;;;5071153;28;20115;-76
2021/06/23 01:54:52;;;;;;;21.13;8.65;;;13.20;99.90;;;;;;5073564;28;20179;-76
2021/06/23 01:57:20;;;;;;;16.58;8.18;;;13.30;99.90;;;;;;5075552;28;20020;-74
2021/06/23 01:59:47;;;;;;;17.25;7.57;;;13.20;99.90;;;;;;5071321;28;20472;-75
2021/06/23 02:02:29;;;;;;;18.35;7.85;;;13.20;99.90;;;;;;5069576;28;20533;-75
2021/06/23 02:05:00;;;;;;;15.15;7.88;;;13.40;99.90;;;;;;5064929;28;20021;-75
2021/06/23 02:08:05;;;;;;;12.77;7.27;;;13.40;99.90;;;;;;5073863;28;20020;-74
2021/06/23 02:10:46;;;;;;;17.05;8.30;;;13.50;99.90;;;;;;5075886;28;20039;-77
2021/06/23 02:13:29;;;;;;;18.08;9.13;;;13.40;99.90;;;;;;5079655;28;20036;-75
2021/06/23 02:16:07;;;;;;;12.93;7.30;;;13.30;99.90;;;;;;5079832;28;20024;-74
2021/06/23 02:18:34;;;;;;;12.82;6.90;;;13.30;99.90;;;;;;5078194;28;20025;-74
2021/06/23 02:21:02;;;;;;;13.90;8.02;;;13.30;99.90;;;;;;5082054;28;20028;-75
2021/06/23 02:23:28;;;;;;;15.15;7.97;;;13.30;99.90;;;;;;5077079;28;20041;-76
2021/06/23 02:25:54;;;;;;;20.35;9.38;;;13.30;99.90;;;;;;5075398;28;20054;-75
2021/06/23 02:28:21;;;;;;;15.05;8.77;;;13.20;99.90;;;;;;5073802;28;20028;-75
2021/06/23 02:30:47;;;;;;;20.55;8.43;;;13.20;99.90;;;;;;5076634;28;20036;-75
2021/06/23 02:33:13;;;;;;;25.25;10.00;;;13.20;99.90;;;;;;5071852;28;20028;-75
2021/06/23 02:35:39;;;;;;;19.52;11.02;;;13.10;99.90;;;;;;5078505;28;20031;-75
2021/06/23 02:38:06;;;;;;;21.50;9.70;;;12.90;99.90;;;;;;5079154;28;20032;-76
2021/06/23 02:40:33;;;;;;;19.65;10.63;;;12.80;99.90;;;;;;5075659;28;20052;-75
2021/06/23 02:42:59;;;;;;;23.88;10.32;;;12.80;99.90;;;;;;5077519;28;20040;-75
2021/06/23 02:45:26;;;;;;;17.80;10.10;;;12.90;99.90;;;;;;5074791;28;20024;-76
2021/06/23 02:47:53;;;;;;;32.75;10.82;;;12.80;99.90;;;;;;5084741;28;20035;-77
2021/06/23 02:50:19;;;;;;;25.15;11.10;;;12.90;99.90;;;;;;5077959;28;20032;-76
2021/06/23 02:52:47;;;;;;;25.85;11.73;;;12.90;99.90;;;;;;5083414;28;20059;-76
2021/06/23 02:55:19;;;;;;;25.45;11.95;;;12.80;99.90;;;;;;5080350;28;20033;-77
2021/06/23 02:57:46;;;;;;;25.45;11.65;;;12.70;99.90;;;;;;5088364;28;20028;-75
2021/06/23 03:00:12;;;;;;;29.27;13.57;;;12.70;99.90;;;;;;5089878;28;20030;-78
2021/06/23 03:02:38;;;;;;;24.00;15.88;;;12.70;99.90;;;;;;5089465;28;20012;-74
2021/06/23 03:05:05;;;;;;;32.85;21.13;;;12.60;99.90;;;;;;5088502;28;20005;-75
2021/06/23 03:07:31;;;;;;;34.22;22.38;;;12.60;99.90;;;;;;5087108;28;20021;-74
2021/06/23 03:10:08;;;;;;;47.88;26.30;;;12.60;99.90;;;;;;5081323;28;20040;-75
2021/06/23 03:12:34;;;;;;;36.50;24.45;;;12.50;99.90;;;;;;5080307;28;20146;-75
2021/06/23 03:15:00;;;;;;;40.95;24.00;;;12.50;99.90;;;;;;5075070;28;20021;-76
2021/06/23 03:17:26;;;;;;;38.20;25.08;;;12.60;99.90;;;;;;5078060;28;20031;-76
2021/06/23 03:19:52;;;;;;;45.70;29.08;;;12.60;99.90;;;;;;5085651;28;20024;-76
2021/06/23 03:22:19;;;;;;;44.00;27.13;;;12.60;99.90;;;;;;5081027;28;20013;-76
2021/06/23 03:24:44;;;;;;;37.03;24.88;;;12.60;99.90;;;;;;5084040;28;20475;-78
2021/06/23 03:27:10;;;;;;;31.50;20.65;;;12.60;99.90;;;;;;5084474;28;20101;-78
2021/06/23 03:29:36;;;;;;;26.33;16.95;;;12.60;99.90;;;;;;5073291;28;20033;-77
2021/06/23 03:32:05;;;;;;;26.75;16.88;;;12.50;99.90;;;;;;5079677;28;20032;-77
2021/06/23 03:34:31;;;;;;;32.33;19.63;;;12.50;99.90;;;;;;5080765;28;20531;-76
2021/06/23 03:36:57;;;;;;;32.03;21.40;;;12.60;99.90;;;;;;5073915;28;20028;-76
2021/06/23 03:39:23;;;;;;;35.92;24.20;;;12.60;99.90;;;;;;5086592;28;20048;-76
2021/06/23 03:41:48;;;;;;;31.92;19.90;;;12.60;99.90;;;;;;5094945;28;20017;-76
2021/06/23 03:44:14;;;;;;;30.17;19.15;;;12.60;99.90;;;;;;5094829;28;20037;-77
2021/06/23 03:46:40;;;;;;;32.28;19.38;;;12.60;99.90;;;;;;5090260;28;20104;-76
2021/06/23 03:49:06;;;;;;;35.67;18.10;;;12.60;99.90;;;;;;5085595;28;20032;-77
2021/06/23 03:51:32;;;;;;;26.02;18.65;;;12.60;99.90;;;;;;5084924;28;20025;-74
2021/06/23 03:53:57;;;;;;;32.70;18.60;;;12.50;99.90;;;;;;5086083;28;20048;-77
2021/06/23 03:56:23;;;;;;;28.58;18.65;;;12.40;99.90;;;;;;5079230;28;20104;-77
2021/06/23 03:58:49;;;;;;;27.17;18.08;;;12.40;99.90;;;;;;5076849;28;20050;-76
2021/06/23 04:01:15;;;;;;;28.60;17.63;;;12.50;99.90;;;;;;5082564;28;20084;-75
2021/06/23 04:03:41;;;;;;;22.80;16.73;;;12.50;99.90;;;;;;5083859;28;20020;-76
2021/06/23 04:06:07;;;;;;;20.48;13.38;;;12.50;99.90;;;;;;5087557;28;20039;-76
2021/06/23 04:08:32;;;;;;;24.63;14.45;;;12.40;99.90;;;;;;5086671;28;20012;-76
2021/06/23 04:10:58;;;;;;;23.67;15.73;;;12.30;99.90;;;;;;5084712;28;20080;-76
2021/06/23 04:13:23;;;;;;;23.30;14.35;;;12.30;99.90;;;;;;5085952;28;20032;-77
2021/06/23 04:15:49;;;;;;;23.30;13.55;;;12.40;99.90;;;;;;5088741;28;20009;-76
2021/06/23 04:18:15;;;;;;;31.02;16.45;;;12.30;99.90;;;;;;5083781;28;20058;-75
2021/06/23 04:20:40;;;;;;;22.50;15.32;;;12.40;99.90;;;;;;5079693;28;20048;-76
2021/06/23 04:23:06;;;;;;;27.15;15.25;;;12.30;99.90;;;;;;5076225;28;20039;-75
2021/06/23 04:25:31;;;;;;;22.67;16.00;;;12.40;99.90;;;;;;5086046;28;20064;-77
2021/06/23 04:27:57;;;;;;;25.30;16.73;;;12.30;99.90;;;;;;5087535;28;20091;-76
2021/06/23 04:30:23;;;;;;;39.45;20.83;;;12.40;99.90;;;;;;5084303;28;20046;-76
2021/06/23 04:32:48;;;;;;;21.45;16.70;;;12.40;99.90;;;;;;5079516;28;20111;-77
2021/06/23 04:35:14;;;;;;;28.13;20.05;;;12.30;99.90;;;;;;5088278;28;20077;-77
2021/06/23 04:37:42;;;;;;;27.35;21.50;;;12.40;99.90;;;;;;5092140;28;20031;-77
2021/06/23 04:40:11;;;;;;;23.33;16.30;;;12.50;99.90;;;;;;5084026;28;20040;-77
2021/06/23 04:42:38;;;;;;;28.35;14.52;;;12.40;99.90;;;;;;5091561;28;20050;-77
2021/06/23 04:45:07;;;;;;;19.38;15.60;;;12.40;99.90;;;;;;5091312;28;20035;-76
2021/06/23 04:47:36;;;;;;;22.75;15.18;;;12.50;99.90;;;;;;5082320;28;20068;-74
2021/06/23 04:50:04;;;;;;;21.92;13.95;;;12.60;99.90;;;;;;5084502;28;20032;-77
2021/06/23 04:52:30;;;;;;;25.08;13.45;;;12.60;99.90;;;;;;5090464;28;20027;-76
2021/06/23 04:54:56;;;;;;;20.58;11.48;;;12.50;99.90;;;;;;5090047;28;20028;-76
2021/06/23 04:57:21;;;;;;;21.75;12.60;;;12.30;99.90;;;;;;5083296;28;20043;-76
2021/06/23 04:59:47;;;;;;;25.90;11.80;;;12.40;99.90;;;;;;5085733;28;20040;-77
2021/06/23 05:02:14;;;;;;;19.25;12.10;;;12.40;99.90;;;;;;5085248;28;20084;-76
2021/06/23 05:04:40;;;;;;;14.40;10.45;;;12.40;99.90;;;;;;5081845;28;20010;-77
2021/06/23 05:07:07;;;;;;;22.80;12.05;;;12.30;99.90;;;;;;5079485;28;20617;-76
2021/06/23 05:09:34;;;;;;;25.38;11.25;;;12.40;99.90;;;;;;5075687;28;20008;-74
2021/06/23 05:11:59;;;;;;;14.98;10.38;;;12.40;99.90;;;;;;5079996;28;20017;-75
2021/06/23 05:14:25;;;;;;;18.40;10.18;;;12.30;99.90;;;;;;5069002;28;20028;-75
2021/06/23 05:16:51;;;;;;;22.85;10.85;;;12.30;99.90;;;;;;5069972;28;20017;-76
2021/06/23 05:19:18;;;;;;;18.75;10.25;;;12.50;99.90;;;;;;5076467;28;20012;-76
2021/06/23 05:21:46;;;;;;;15.27;9.82;;;12.50;99.90;;;;;;5074364;28;20029;-75
2021/06/23 05:24:12;;;;;;;16.63;9.57;;;12.40;99.90;;;;;;5072728;28;20044;-78
2021/06/23 05:26:38;;;;;;;25.38;9.23;;;12.40;99.90;;;;;;5079133;28;20016;-76
2021/06/23 05:29:04;;;;;;;20.35;8.80;;;12.40;99.90;;;;;;5079908;28;20038;-76
2021/06/23 05:31:31;;;;;;;17.90;9.52;;;12.50;99.90;;;;;;5081796;28;20080;-76
2021/06/23 05:33:56;;;;;;;19.08;9.23;;;12.60;99.90;;;;;;5085027;28;20577;-76
2021/06/23 05:36:22;;;;;;;20.90;8.73;;;12.60;99.90;;;;;;5077145;28;20077;-75
2021/06/23 05:38:48;;;;;;;18.10;8.90;;;12.60;99.90;;;;;;5078721;28;20502;-76
2021/06/23 05:41:14;;;;;;;22.48;8.52;;;12.60;99.90;;;;;;5085291;28;20040;-77
2021/06/23 05:43:40;;;;;;;11.32;8.18;;;12.60;99.90;;;;;;5087675;28;21072;-76
2021/06/23 05:46:06;;;;;;;26.48;9.85;;;12.70;99.90;;;;;;5081879;28;20063;-76
2021/06/23 05:48:32;;;;;;;15.90;7.97;;;12.60;99.90;;;;;;5073260;28;20033;-76
2021/06/23 05:50:58;;;;;;;18.38;8.32;;;12.50;99.90;;;;;;5081561;28;20060;-75
2021/06/23 05:53:23;;;;;;;18.08;8.85;;;12.50;99.90;;;;;;5075315;28;20032;-76
2021/06/23 05:55:49;;;;;;;19.80;9.45;;;12.50;99.90;;;;;;5079984;28;20024;-74
2021/06/23 05:58:15;;;;;;;18.73;8.40;;;12.70;99.90;;;;;;5079151;28;20021;-75
2021/06/23 06:00:41;;;;;;;16.88;7.47;;;12.70;99.90;;;;;;5081012;28;20044;-76
2021/06/23 06:03:08;;;;;;;13.48;8.40;;;12.70;99.90;;;;;;5079604;28;20490;-75
2021/06/23 06:05:34;;;;;;;18.08;8.18;;;12.80;99.90;;;;;;5078949;28;20120;-75
2021/06/23 06:08:00;;;;;;;16.55;8.38;;;12.90;99.90;;;;;;5076108;28;20301;-75
2021/06/23 06:10:27;;;;;;;19.60;8.23;;;12.80;99.90;;;;;;5077475;28;20044;-76
2021/06/23 06:12:53;;;;;;;22.98;8.50;;;12.80;99.90;;;;;;5073420;28;20036;-75
2021/06/23 06:15:18;;;;;;;20.88;7.68;;;12.90;99.90;;;;;;5075351;28;20025;-75
2021/06/23 06:17:46;;;;;;;17.63;8.15;;;12.90;99.90;;;;;;5075825;28;20016;-72
2021/06/23 06:20:12;;;;;;;18.25;8.02;;;12.90;99.90;;;;;;5072195;28;20282;-73
2021/06/23 06:22:38;;;;;;;12.45;6.90;;;13.00;99.90;;;;;;5076475;28;20087;-75
2021/06/23 06:25:05;;;;;;;14.50;7.90;;;13.10;99.90;;;;;;5076237;28;20476;-76
2021/06/23 06:27:30;;;;;;;16.08;7.72;;;13.10;99.90;;;;;;5077494;28;20032;-74
2021/06/23 06:29:56;;;;;;;22.83;7.93;;;13.10;99.90;;;;;;5076513;28;20024;-74
2021/06/23 06:32:21;;;;;;;16.38;6.72;;;13.10;99.90;;;;;;5068042;28;20212;-76
2021/06/23 06:34:47;;;;;;;17.40;6.72;;;13.10;99.90;;;;;;5076935;28;20031;-74
2021/06/23 06:37:14;;;;;;;18.65;8.55;;;13.30;99.90;;;;;;5079395;28;20196;-74
2021/06/23 06:39:41;;;;;;;13.90;6.57;;;13.40;99.90;;;;;;5078138;28;20035;-74
2021/06/23 06:42:07;;;;;;;18.33;7.07;;;13.30;99.90;;;;;;5077014;28;20035;-74
2021/06/23 06:44:34;;;;;;;15.10;6.05;;;13.50;99.90;;;;;;5072211;28;20495;-74
2021/06/23 06:47:01;;;;;;;13.30;6.25;;;13.50;99.90;;;;;;5067871;28;20120;-74
2021/06/23 06:49:30;;;;;;;16.55;6.63;;;13.70;99.90;;;;;;5074096;28;20045;-76
2021/06/23 06:51:58;;;;;;;8.45;4.53;;;13.60;99.90;;;;;;5088882;28;20032;-74
2021/06/23 06:54:28;;;;;;;16.20;5.07;;;13.60;99.90;;;;;;5092204;28;20028;-74
2021/06/23 06:56:53;;;;;;;11.75;5.57;;;13.50;99.90;;;;;;5091411;28;20052;-74
2021/06/23 06:59:20;;;;;;;11.88;5.18;;;13.70;99.90;;;;;;5087106;28;20052;-73
2021/06/23 07:01:47;;;;;;;13.80;5.03;;;13.70;99.90;;;;;;5093734;28;20029;-76
2021/06/23 07:04:15;;;;;;;10.23;5.30;;;13.70;99.90;;;;;;5092823;28;20045;-73
2021/06/23 07:06:41;;;;;;;14.05;5.43;;;13.60;99.90;;;;;;5092985;28;20034;-76
2021/06/23 07:09:07;;;;;;;11.77;4.72;;;13.70;99.90;;;;;;5092731;28;20076;-76
2021/06/23 07:11:32;;;;;;;13.48;4.60;;;13.80;99.90;;;;;;5088862;28;20040;-74
2021/06/23 07:14:01;;;;;;;19.05;4.75;;;13.80;99.90;;;;;;5077584;28;20029;-75
2021/06/23 07:16:27;;;;;;;9.05;4.35;;;14.00;99.90;;;;;;5085142;28;20123;-74
2021/06/23 07:18:53;;;;;;;13.43;5.50;;;13.90;99.90;;;;;;5081825;28;20025;-73
2021/06/23 07:21:18;;;;;;;9.98;4.63;;;14.00;99.90;;;;;;5085257;28;20024;-75
2021/06/23 07:23:48;;;;;;;16.92;4.55;;;13.90;99.90;;;;;;5066464;28;20028;-74
2021/06/23 07:26:15;;;;;;;10.23;4.40;;;14.10;99.90;;;;;;5085562;28;20043;-75
2021/06/23 07:28:52;;;;;;;8.27;4.57;;;14.10;99.90;;;;;;5078737;28;20106;-74
2021/06/23 07:31:26;;;;;;;12.52;4.35;;;14.00;99.90;;;;;;5072536;28;20126;-74
2021/06/23 07:33:58;;;;;;;9.18;3.55;;;14.10;99.90;;;;;;5069784;28;20024;-75
2021/06/23 07:38:58;;;;;;;10.85;3.55;;;14.60;99.90;;;;;;5058393;28;20052;-73
2021/06/23 07:41:24;;;;;;;11.88;3.85;;;14.40;99.90;;;;;;5061480;28;20017;-74
2021/06/23 07:43:51;;;;;;;15.77;3.35;;;14.50;99.90;;;;;;5063363;28;20032;-75
2021/06/23 07:46:17;;;;;;;9.60;2.90;;;14.50;99.90;;;;;;5060153;28;20080;-75
2021/06/23 07:48:43;;;;;;;10.52;3.60;;;14.40;99.90;;;;;;5066555;28;20063;-74
2021/06/23 07:51:16;;;;;;;9.75;3.35;;;14.30;99.90;;;;;;5063216;28;20035;-75
2021/06/23 07:56:27;;;;;;;12.35;3.35;;;14.30;99.90;;;;;;5060548;28;20373;-73
2021/06/23 08:10:09;;;;;;;14.85;3.05;;;14.50;99.90;;;;;;5064367;28;20028;-75
2021/06/23 08:12:51;;;;;;;11.35;3.72;;;14.60;99.90;;;;;;5067750;28;20095;-74
2021/06/23 08:15:17;;;;;;;7.20;2.95;;;14.80;99.90;;;;;;5065528;28;20020;-76
2021/06/23 08:17:44;;;;;;;12.48;3.55;;;14.90;99.90;;;;;;5066153;28;20059;-75
2021/06/23 08:20:10;;;;;;;10.57;3.40;;;14.80;99.90;;;;;;5067865;28;20020;-75
2021/06/23 08:22:36;;;;;;;12.18;3.45;;;15.00;99.90;;;;;;5066245;28;20029;-76
2021/06/23 08:25:02;;;;;;;11.85;2.60;;;14.90;99.90;;;;;;5064115;28;20388;-76
2021/06/23 08:27:29;;;;;;;8.60;3.42;;;15.10;99.90;;;;;;5067357;28;20063;-74
2021/06/23 08:29:56;;;;;;;9.27;3.25;;;15.30;99.90;;;;;;5063821;28;20029;-73
2021/06/23 08:32:21;;;;;;;10.38;2.80;;;15.40;99.90;;;;;;5072773;28;20008;-75
2021/06/23 08:34:47;;;;;;;5.82;2.10;;;15.20;99.90;;;;;;5068291;28;20040;-76
2021/06/23 08:37:12;;;;;;;12.43;3.33;;;15.10;99.90;;;;;;5067708;28;20520;-72
2021/06/23 08:39:38;;;;;;;14.90;2.92;;;15.30;99.90;;;;;;5073172;28;20035;-76
2021/06/23 08:42:04;;;;;;;7.82;2.28;;;15.20;99.90;;;;;;5082475;28;20029;-75
2021/06/23 08:44:30;;;;;;;8.23;3.03;;;15.20;99.90;;;;;;5079522;28;20017;-75
2021/06/23 08:47:00;;;;;;;9.88;2.90;;;15.40;99.90;;;;;;5067971;28;20036;-77
2021/06/23 08:49:27;;;;;;;7.28;2.58;;;15.60;99.90;;;;;;5076855;28;20120;-75
2021/06/23 08:51:56;;;;;;;14.30;3.30;;;15.50;99.90;;;;;;5063104;28;20024;-74
2021/06/23 08:54:22;;;;;;;6.35;2.58;;;15.50;99.90;;;;;;5073858;28;20021;-74
2021/06/23 08:56:48;;;;;;;9.45;3.20;;;15.70;99.90;;;;;;5075367;28;20102;-77
2021/06/23 08:59:14;;;;;;;9.05;3.25;;;15.80;99.90;;;;;;5082200;28;20017;-76
2021/06/23 09:01:44;;;;;;;5.05;2.55;;;15.90;99.90;;;;;;5065640;28;20193;-75
2021/06/23 09:04:12;;;;;;;15.32;2.90;;;15.80;99.90;;;;;;5063368;28;20021;-78
2021/06/23 09:06:42;;;;;;;10.13;3.10;;;15.70;99.90;;;;;;5062496;28;20029;-78
2021/06/23 09:09:27;;;;;;;10.27;3.15;;;15.80;99.90;;;;;;5068383;28;20024;-77
2021/06/23 09:11:59;;;;;;;11.85;3.45;;;15.80;99.90;;;;;;5086558;28;20431;-75
2021/06/23 09:14:28;;;;;;;6.53;3.05;;;16.00;99.90;;;;;;5088049;28;20047;-78
2021/06/23 09:17:06;;;;;;;20.63;3.65;;;16.20;99.90;;;;;;5083492;28;20028;-75
2021/06/23 09:19:33;;;;;;;9.15;3.53;;;16.10;99.90;;;;;;5077721;28;20001;-75
2021/06/23 09:21:59;;;;;;;12.20;3.83;;;16.20;99.90;;;;;;5084503;28;20068;-75
2021/06/23 09:24:39;;;;;;;12.48;3.35;;;16.00;99.90;;;;;;5085203;28;20380;-76
2021/06/23 09:27:26;;;;;;;8.68;2.80;;;15.90;99.90;;;;;;5080705;28;20117;-75
2021/06/23 09:29:52;;;;;;;13.20;3.00;;;16.00;99.90;;;;;;5083887;28;20040;-77
2021/06/23 09:32:19;;;;;;;8.30;3.70;;;16.00;99.90;;;;;;5087735;28;20028;-76
2021/06/23 09:34:47;;;;;;;18.23;3.40;;;15.70;99.90;;;;;;5071934;28;20040;-76
2021/06/23 09:37:34;;;;;;;7.28;3.70;;;15.50;99.90;;;;;;5068261;28;20093;-75
2021/06/23 09:40:09;;;;;;;10.85;3.45;;;15.70;99.90;;;;;;5064938;28;20430;-76
2021/06/23 09:42:44;;;;;;;12.35;4.00;;;15.90;99.90;;;;;;5063143;28;20021;-76
2021/06/23 09:45:12;;;;;;;12.20;3.72;;;15.80;99.90;;;;;;5062911;28;20017;-74
2021/06/23 09:47:38;;;;;;;9.98;4.43;;;15.60;99.90;;;;;;5060022;28;20021;-75
2021/06/23 09:50:07;;;;;;;14.63;4.57;;;15.60;99.90;;;;;;5059429;28;20033;-75
2021/06/23 09:52:35;;;;;;;7.05;3.72;;;15.70;99.90;;;;;;5063828;28;20012;-75
2021/06/23 09:55:02;;;;;;;9.82;3.10;;;15.70;99.90;;;;;;5060378;28;20032;-75
2021/06/23 09:57:28;;;;;;;9.65;3.28;;;15.90;99.90;;;;;;5063614;28;20013;-75
2021/06/23 10:00:09;;;;;;;9.32;3.25;;;16.00;99.90;;;;;;5072784;28;20052;-72
2021/06/23 10:02:35;;;;;;;13.25;3.22;;;15.90;99.90;;;;;;5077501;28;20010;-75
2021/06/23 10:05:19;;;;;;;11.77;3.67;;;15.80;99.90;;;;;;5087909;28;20016;-73
2021/06/23 10:07:48;;;;;;;11.80;3.33;;;15.80;99.90;;;;;;5069425;28;20017;-76
2021/06/23 10:10:23;;;;;;;9.90;2.90;;;16.00;99.90;;;;;;5080768;28;20009;-73
2021/06/23 10:12:54;;;;;;;8.55;2.88;;;16.20;99.90;;;;;;5086889;28;20316;-74
2021/06/23 10:15:21;;;;;;;11.77;3.42;;;16.20;99.90;;;;;;5086712;28;20016;-74
2021/06/23 10:17:47;;;;;;;13.23;2.83;;;16.10;99.90;;;;;;5082452;28;20028;-74
2021/06/23 10:20:15;;;;;;;11.45;2.90;;;16.20;99.90;;;;;;5080063;28;20029;-73
2021/06/23 10:22:43;;;;;;;10.15;3.42;;;16.10;99.90;;;;;;5078208;28;20054;-74
2021/06/23 10:25:11;;;;;;;16.08;3.70;;;16.20;99.90;;;;;;5075267;28;20012;-75
2021/06/23 10:27:49;;;;;;;13.13;3.05;;;16.10;99.90;;;;;;5077862;28;20108;-75
2021/06/23 10:30:17;;;;;;;7.72;2.72;;;16.10;99.90;;;;;;5076827;28;20060;-75
2021/06/23 10:32:44;;;;;;;9.55;3.50;;;15.80;99.90;;;;;;5072280;28;20092;-75
2021/06/23 10:35:11;;;;;;;13.48;3.00;;;16.00;99.90;;;;;;5074594;28;20020;-74
2021/06/23 10:37:39;;;;;;;7.95;2.65;;;16.00;99.90;;;;;;5072667;28;20028;-77
2021/06/23 10:40:13;;;;;;;9.50;3.00;;;15.90;99.90;;;;;;5070141;28;20470;-76
2021/06/23 10:42:39;;;;;;;12.07;4.20;;;15.80;99.90;;;;;;5069971;28;20028;-75
2021/06/23 10:45:06;;;;;;;8.77;3.95;;;15.90;99.90;;;;;;5070991;28;20020;-74
2021/06/23 10:47:39;;;;;;;10.35;2.83;;;16.10;99.90;;;;;;5070558;28;20033;-76
2021/06/23 10:50:10;;;;;;;9.95;2.85;;;16.00;99.90;;;;;;5065597;28;20389;-75
2021/06/23 10:52:38;;;;;;;7.03;3.35;;;16.20;99.90;;;;;;5064988;28;20024;-76
2021/06/23 10:55:14;;;;;;;10.73;2.92;;;16.30;99.90;;;;;;5071727;28;20054;-71
2021/06/23 10:57:47;;;;;;;8.90;3.33;;;16.70;99.90;;;;;;5076141;28;20028;-74
2021/06/23 11:00:21;;;;;;;11.90;3.38;;;16.80;99.90;;;;;;5066950;28;20112;-76
2021/06/23 11:02:50;;;;;;;6.85;3.15;;;17.00;99.90;;;;;;5069090;28;20108;-74
2021/06/23 11:05:20;;;;;;;6.75;3.17;;;16.80;99.90;;;;;;5068851;28;20025;-75
2021/06/23 11:07:55;;;;;;;9.93;3.17;;;16.50;99.90;;;;;;5075003;28;20273;-75
2021/06/23 11:10:36;;;;;;;11.65;3.47;;;16.20;99.90;;;;;;5061664;28;20481;-74
2021/06/23 11:13:06;;;;;;;11.68;3.08;;;16.30;99.90;;;;;;5062675;28;20048;-76
2021/06/23 11:15:39;;;;;;;11.68;3.33;;;16.50;99.90;;;;;;5062265;28;20017;-75
2021/06/23 11:18:24;;;;;;;11.30;4.28;;;16.70;99.90;;;;;;5069656;28;20013;-76
2021/06/23 11:20:56;;;;;;;11.93;3.65;;;16.50;99.90;;;;;;5069381;28;20029;-74
2021/06/23 11:23:41;;;;;;;13.53;3.07;;;16.60;99.90;;;;;;5060315;28;20104;-75
2021/06/23 11:26:07;;;;;;;14.98;3.00;;;16.70;99.90;;;;;;5079347;28;20503;-75
2021/06/23 11:28:35;;;;;;;8.55;2.88;;;16.60;99.90;;;;;;5068771;28;20059;-76
2021/06/23 11:31:07;;;;;;;11.57;3.15;;;16.60;99.90;;;;;;5051771;28;20088;-76
2021/06/23 11:33:38;;;;;;;12.18;3.72;;;16.70;99.90;;;;;;5066690;28;20017;-72
2021/06/23 11:36:07;;;;;;;10.40;3.10;;;16.80;99.90;;;;;;4166570;28;10000612;-74
2021/06/23 11:38:36;;;;;;;8.85;3.00;;;17.00;99.90;;;;;;5050230;28;20031;-75
2021/06/23 11:41:05;;;;;;;15.35;3.47;;;17.00;99.90;;;;;;5051112;28;20053;-74
2021/06/23 11:43:31;;;;;;;16.17;3.38;;;16.90;99.90;;;;;;5050317;28;20028;-76
2021/06/23 11:45:57;;;;;;;7.75;3.13;;;17.20;99.90;;;;;;5050319;28;20271;-75
2021/06/23 11:48:26;;;;;;;12.77;3.67;;;17.10;99.90;;;;;;5053679;28;20025;-75
2021/06/23 11:50:53;;;;;;;10.40;3.85;;;17.10;99.90;;;;;;5052533;28;20047;-75
2021/06/23 11:53:20;;;;;;;8.25;3.05;;;17.20;99.90;;;;;;5048355;28;20059;-76
2021/06/23 11:55:48;;;;;;;6.57;3.45;;;17.50;99.90;;;;;;5047153;28;20273;-75
2021/06/23 11:58:14;;;;;;;8.05;3.28;;;17.60;99.90;;;;;;5042499;28;20056;-75
2021/06/23 12:00:41;;;;;;;9.07;3.35;;;17.60;99.90;;;;;;5043511;28;20018;-77
2021/06/23 12:03:08;;;;;;;14.73;3.72;;;17.80;99.90;;;;;;5045630;28;20025;-75
2021/06/23 12:05:35;;;;;;;7.90;3.13;;;17.70;99.90;;;;;;5049526;28;20082;-75
2021/06/23 12:08:00;;;;;;;7.78;3.85;;;17.80;99.90;;;;;;5053853;28;20033;-75
2021/06/23 12:10:28;;;;;;;12.07;4.18;;;17.30;99.90;;;;;;5067349;28;20037;-75
2021/06/23 12:12:54;;;;;;;10.10;4.82;;;16.90;99.90;;;;;;5052628;28;20047;-75
2021/06/23 12:15:21;;;;;;;9.98;4.07;;;17.10;99.90;;;;;;5042841;28;20473;-79
2021/06/23 12:17:52;;;;;;;9.90;3.92;;;17.10;99.90;;;;;;5043852;28;20052;-74
2021/06/23 12:20:18;;;;;;;14.68;4.03;;;17.00;99.90;;;;;;5039663;28;20397;-75
2021/06/23 12:22:44;;;;;;;10.50;3.90;;;17.10;99.90;;;;;;5039388;28;20108;-74
2021/06/23 12:25:14;;;;;;;14.52;3.92;;;17.30;99.90;;;;;;5046101;28;20072;-75
2021/06/23 12:27:41;;;;;;;6.43;3.60;;;17.60;99.90;;;;;;5038558;28;20025;-76
2021/06/23 12:30:08;;;;;;;12.48;3.70;;;18.00;99.90;;;;;;5048772;28;20040;-77
2021/06/23 12:32:34;;;;;;;7.72;2.95;;;18.00;99.90;;;;;;5045534;28;20078;-75
2021/06/23 12:35:03;;;;;;;7.40;3.60;;;18.10;99.90;;;;;;5041940;28;20025;-75
2021/06/23 12:37:28;;;;;;;11.32;3.90;;;18.00;99.90;;;;;;5046126;28;20026;-77
2021/06/23 12:39:54;;;;;;;10.23;4.22;;;17.90;99.90;;;;;;5038239;28;20045;-74
2021/06/23 12:42:20;;;;;;;9.30;3.58;;;17.70;99.90;;;;;;5042987;28;20024;-76
2021/06/23 12:44:45;;;;;;;5.43;3.25;;;17.80;99.90;;;;;;5045098;28;20017;-78
2021/06/23 12:47:11;;;;;;;10.00;3.90;;;17.80;99.90;;;;;;5050556;28;20147;-75
2021/06/23 12:49:37;;;;;;;9.32;4.38;;;17.80;99.90;;;;;;5044544;28;20021;-77
2021/06/23 12:52:03;;;;;;;7.38;3.88;;;17.60;99.90;;;;;;5053855;28;20056;-76
2021/06/23 12:54:29;;;;;;;5.07;3.72;;;17.20;99.90;;;;;;5048825;28;20032;-76
2021/06/23 12:56:54;;;;;;;12.93;4.22;;;17.10;99.90;;;;;;5038622;28;20057;-73